aviador You're here:

SMJP Decoded Metar

ZANDERY in SURINAM
Report Time2017-11-24 03:00:00
UTC Time2017-11-24 03:47:00
Flight Rules vfr VFR
Wind080° at 06 kt
W.Decomp.*RWY 11: 5.8 kt HW 1.3 kt LCW
W.Rank080° ranks 3
Current wind is above 080° avg. (5.7)
Visibility9999 m
Phenomena:N/A
Clouds:N/A
Expected CloudBase > 400 ft AGL from Temp-Dew spread
CeilingNone
Temp25°C (ISA +10)
Dew Point24°C (94% RH)
QNH1011 hPa
Density Alt1,680 ft
Elevation52 ft
Report Wrong Elevation
Raw Report
SMJP 240300Z 08006KT CAVOK 25/24 Q1011 NOSIG=

Extra information for SMJP:More info

Metar Taf Metar & Taf Last 4 Metars F.Rules Stats Wind Profile Meteogram Temp Stats Airport Information Weather charts Add Link Nearby VenuesMetar ALERT Operation Metar Decoded Social comments